sensor_id;sensor_type;location;lat;lon;timestamp;P1;durP1;ratioP1;P2;durP2;ratioP2
69081;SDS011;69029;51.986;5.760;2023-07-13T00:02:16;6.78;;;1.48;;
69081;SDS011;69029;51.986;5.760;2023-07-13T00:04:42;8.23;;;1.42;;
69081;SDS011;69029;51.986;5.760;2023-07-13T00:07:08;5.97;;;1.75;;
69081;SDS011;69029;51.986;5.760;2023-07-13T00:09:34;6.68;;;1.52;;
69081;SDS011;69029;51.986;5.760;2023-07-13T00:12:02;5.57;;;1.30;;
69081;SDS011;69029;51.986;5.760;2023-07-13T00:14:28;4.22;;;1.50;;
69081;SDS011;69029;51.986;5.760;2023-07-13T00:16:54;6.45;;;1.40;;
69081;SDS011;69029;51.986;5.760;2023-07-13T00:19:20;4.82;;;1.10;;
69081;SDS011;69029;51.986;5.760;2023-07-13T00:21:46;9.85;;;1.20;;
69081;SDS011;69029;51.986;5.760;2023-07-13T00:24:12;5.40;;;1.40;;
69081;SDS011;69029;51.986;5.760;2023-07-13T00:26:42;6.00;;;1.20;;
69081;SDS011;69029;51.986;5.760;2023-07-13T00:29:13;5.25;;;1.27;;
69081;SDS011;69029;51.986;5.760;2023-07-13T00:31:39;3.90;;;1.08;;
69081;SDS011;69029;51.986;5.760;2023-07-13T00:34:05;4.68;;;1.40;;
69081;SDS011;69029;51.986;5.760;2023-07-13T00:36:31;4.80;;;1.20;;
69081;SDS011;69029;51.986;5.760;2023-07-13T00:38:57;5.22;;;1.20;;
69081;SDS011;69029;51.986;5.760;2023-07-13T00:41:22;6.30;;;1.20;;
69081;SDS011;69029;51.986;5.760;2023-07-13T00:43:48;2.78;;;1.15;;
69081;SDS011;69029;51.986;5.760;2023-07-13T00:46:15;5.57;;;1.20;;
69081;SDS011;69029;51.986;5.760;2023-07-13T00:48:44;4.13;;;1.50;;
69081;SDS011;69029;51.986;5.760;2023-07-13T00:51:12;8.27;;;1.30;;
69081;SDS011;69029;51.986;5.760;2023-07-13T00:53:39;7.10;;;1.35;;
69081;SDS011;69029;51.986;5.760;2023-07-13T00:56:05;3.45;;;1.27;;
69081;SDS011;69029;51.986;5.760;2023-07-13T00:58:32;8.88;;;1.58;;
69081;SDS011;69029;51.986;5.760;2023-07-13T01:00:59;5.90;;;1.30;;
69081;SDS011;69029;51.986;5.760;2023-07-13T01:03:25;4.60;;;1.20;;
69081;SDS011;69029;51.986;5.760;2023-07-13T01:05:51;4.63;;;1.45;;
69081;SDS011;69029;51.986;5.760;2023-07-13T01:08:19;8.32;;;1.50;;
69081;SDS011;69029;51.986;5.760;2023-07-13T01:10:52;3.63;;;1.23;;
69081;SDS011;69029;51.986;5.760;2023-07-13T01:13:19;5.85;;;1.38;;
69081;SDS011;69029;51.986;5.760;2023-07-13T01:15:46;4.10;;;1.30;;
69081;SDS011;69029;51.986;5.760;2023-07-13T01:18:18;4.72;;;1.52;;
69081;SDS011;69029;51.986;5.760;2023-07-13T01:21:04;5.88;;;1.75;;
69081;SDS011;69029;51.986;5.760;2023-07-13T01:23:31;4.75;;;1.30;;
69081;SDS011;69029;51.986;5.760;2023-07-13T01:25:58;3.47;;;1.40;;
69081;SDS011;69029;51.986;5.760;2023-07-13T01:28:24;3.42;;;1.40;;
69081;SDS011;69029;51.986;5.760;2023-07-13T01:30:52;4.22;;;1.40;;
69081;SDS011;69029;51.986;5.760;2023-07-13T01:33:18;4.15;;;1.40;;
69081;SDS011;69029;51.986;5.760;2023-07-13T01:35:45;3.60;;;1.33;;
69081;SDS011;69029;51.986;5.760;2023-07-13T01:38:13;4.30;;;1.35;;
69081;SDS011;69029;51.986;5.760;2023-07-13T01:40:40;5.00;;;1.50;;
69081;SDS011;69029;51.986;5.760;2023-07-13T01:43:07;3.80;;;1.35;;
69081;SDS011;69029;51.986;5.760;2023-07-13T01:45:33;6.43;;;1.50;;
69081;SDS011;69029;51.986;5.760;2023-07-13T01:47:59;3.67;;;1.33;;
69081;SDS011;69029;51.986;5.760;2023-07-13T01:50:26;3.42;;;1.48;;
69081;SDS011;69029;51.986;5.760;2023-07-13T01:52:52;5.05;;;1.40;;
69081;SDS011;69029;51.986;5.760;2023-07-13T01:55:18;3.90;;;1.20;;
69081;SDS011;69029;51.986;5.760;2023-07-13T01:57:45;4.20;;;1.10;;
69081;SDS011;69029;51.986;5.760;2023-07-13T02:00:11;4.80;;;1.20;;
69081;SDS011;69029;51.986;5.760;2023-07-13T02:02:38;4.53;;;1.17;;
69081;SDS011;69029;51.986;5.760;2023-07-13T02:05:04;7.88;;;1.40;;
69081;SDS011;69029;51.986;5.760;2023-07-13T02:07:30;6.20;;;1.38;;
69081;SDS011;69029;51.986;5.760;2023-07-13T02:09:57;4.63;;;1.30;;
69081;SDS011;69029;51.986;5.760;2023-07-13T02:12:23;6.65;;;1.40;;
69081;SDS011;69029;51.986;5.760;2023-07-13T02:14:48;6.78;;;1.50;;
69081;SDS011;69029;51.986;5.760;2023-07-13T02:17:14;6.05;;;1.65;;
69081;SDS011;69029;51.986;5.760;2023-07-13T02:19:40;6.00;;;1.88;;
69081;SDS011;69029;51.986;5.760;2023-07-13T02:22:06;5.15;;;1.85;;
69081;SDS011;69029;51.986;5.760;2023-07-13T02:24:32;5.25;;;1.80;;
69081;SDS011;69029;51.986;5.760;2023-07-13T02:26:57;5.93;;;2.10;;
69081;SDS011;69029;51.986;5.760;2023-07-13T02:29:25;5.38;;;1.75;;
69081;SDS011;69029;51.986;5.760;2023-07-13T02:31:51;3.80;;;1.70;;
69081;SDS011;69029;51.986;5.760;2023-07-13T02:34:16;6.68;;;1.92;;
69081;SDS011;69029;51.986;5.760;2023-07-13T02:36:42;5.32;;;2.00;;
69081;SDS011;69029;51.986;5.760;2023-07-13T02:39:08;6.28;;;1.73;;
69081;SDS011;69029;51.986;5.760;2023-07-13T02:41:36;6.07;;;1.90;;
69081;SDS011;69029;51.986;5.760;2023-07-13T02:44:02;5.38;;;1.58;;
69081;SDS011;69029;51.986;5.760;2023-07-13T02:46:32;6.53;;;1.80;;
69081;SDS011;69029;51.986;5.760;2023-07-13T02:48:58;6.35;;;2.15;;
69081;SDS011;69029;51.986;5.760;2023-07-13T02:51:24;6.32;;;1.88;;
69081;SDS011;69029;51.986;5.760;2023-07-13T02:53:50;4.55;;;1.80;;
69081;SDS011;69029;51.986;5.760;2023-07-13T02:56:16;10.70;;;2.17;;
69081;SDS011;69029;51.986;5.760;2023-07-13T02:58:41;7.15;;;2.20;;
69081;SDS011;69029;51.986;5.760;2023-07-13T03:01:08;8.15;;;2.08;;
69081;SDS011;69029;51.986;5.760;2023-07-13T03:03:34;9.60;;;1.92;;
69081;SDS011;69029;51.986;5.760;2023-07-13T03:06:01;8.10;;;2.22;;
69081;SDS011;69029;51.986;5.760;2023-07-13T03:08:28;7.63;;;1.92;;
69081;SDS011;69029;51.986;5.760;2023-07-13T03:13:49;7.32;;;2.17;;
69081;SDS011;69029;51.986;5.760;2023-07-13T03:16:15;8.52;;;2.10;;
69081;SDS011;69029;51.986;5.760;2023-07-13T03:18:41;8.98;;;2.08;;
69081;SDS011;69029;51.986;5.760;2023-07-13T03:23:37;4.55;;;2.08;;
69081;SDS011;69029;51.986;5.760;2023-07-13T03:26:05;7.38;;;2.00;;
69081;SDS011;69029;51.986;5.760;2023-07-13T03:28:34;8.57;;;2.05;;
69081;SDS011;69029;51.986;5.760;2023-07-13T03:31:01;6.82;;;2.20;;
69081;SDS011;69029;51.986;5.760;2023-07-13T03:33:28;8.45;;;2.33;;
69081;SDS011;69029;51.986;5.760;2023-07-13T03:35:54;7.70;;;2.47;;
69081;SDS011;69029;51.986;5.760;2023-07-13T03:38:19;6.22;;;2.03;;
69081;SDS011;69029;51.986;5.760;2023-07-13T03:40:45;5.03;;;1.95;;
69081;SDS011;69029;51.986;5.760;2023-07-13T03:43:11;8.32;;;2.15;;
69081;SDS011;69029;51.986;5.760;2023-07-13T03:45:39;9.23;;;2.05;;
69081;SDS011;69029;51.986;5.760;2023-07-13T03:48:05;8.45;;;2.30;;
69081;SDS011;69029;51.986;5.760;2023-07-13T03:50:31;9.10;;;2.30;;
69081;SDS011;69029;51.986;5.760;2023-07-13T03:52:57;11.02;;;2.30;;
69081;SDS011;69029;51.986;5.760;2023-07-13T03:55:23;8.30;;;2.35;;
69081;SDS011;69029;51.986;5.760;2023-07-13T03:57:54;6.72;;;2.30;;
69081;SDS011;69029;51.986;5.760;2023-07-13T04:00:24;8.07;;;2.30;;
69081;SDS011;69029;51.986;5.760;2023-07-13T04:02:49;9.43;;;2.35;;
69081;SDS011;69029;51.986;5.760;2023-07-13T04:05:16;6.82;;;2.28;;
69081;SDS011;69029;51.986;5.760;2023-07-13T04:07:42;8.88;;;2.22;;
69081;SDS011;69029;51.986;5.760;2023-07-13T04:10:07;7.15;;;2.20;;
69081;SDS011;69029;51.986;5.760;2023-07-13T04:12:34;9.68;;;2.35;;
69081;SDS011;69029;51.986;5.760;2023-07-13T04:14:59;8.25;;;2.35;;
69081;SDS011;69029;51.986;5.760;2023-07-13T04:17:25;6.50;;;2.00;;
69081;SDS011;69029;51.986;5.760;2023-07-13T04:19:51;8.40;;;2.10;;
69081;SDS011;69029;51.986;5.760;2023-07-13T04:22:17;11.38;;;2.72;;
69081;SDS011;69029;51.986;5.760;2023-07-13T04:24:42;7.32;;;2.30;;
69081;SDS011;69029;51.986;5.760;2023-07-13T04:27:09;7.00;;;2.30;;
69081;SDS011;69029;51.986;5.760;2023-07-13T04:29:34;9.40;;;2.70;;
69081;SDS011;69029;51.986;5.760;2023-07-13T04:32:00;7.53;;;2.28;;
69081;SDS011;69029;51.986;5.760;2023-07-13T04:34:26;8.63;;;2.58;;
69081;SDS011;69029;51.986;5.760;2023-07-13T04:36:51;10.07;;;2.60;;
69081;SDS011;69029;51.986;5.760;2023-07-13T04:39:17;9.55;;;2.70;;
69081;SDS011;69029;51.986;5.760;2023-07-13T04:41:43;9.38;;;2.78;;
69081;SDS011;69029;51.986;5.760;2023-07-13T04:44:08;10.13;;;2.83;;
69081;SDS011;69029;51.986;5.760;2023-07-13T04:46:34;12.93;;;3.53;;
69081;SDS011;69029;51.986;5.760;2023-07-13T04:49:00;10.35;;;3.35;;
69081;SDS011;69029;51.986;5.760;2023-07-13T04:51:25;10.30;;;2.90;;
69081;SDS011;69029;51.986;5.760;2023-07-13T04:53:51;11.43;;;3.10;;
69081;SDS011;69029;51.986;5.760;2023-07-13T04:56:17;9.15;;;2.83;;
69081;SDS011;69029;51.986;5.760;2023-07-13T04:58:46;14.18;;;3.08;;
69081;SDS011;69029;51.986;5.760;2023-07-13T05:01:11;6.63;;;2.83;;
69081;SDS011;69029;51.986;5.760;2023-07-13T05:03:38;13.40;;;2.72;;
69081;SDS011;69029;51.986;5.760;2023-07-13T05:06:05;9.68;;;2.72;;
69081;SDS011;69029;51.986;5.760;2023-07-13T05:08:32;12.32;;;2.95;;
69081;SDS011;69029;51.986;5.760;2023-07-13T05:10:59;8.50;;;2.67;;
69081;SDS011;69029;51.986;5.760;2023-07-13T05:13:26;10.52;;;3.22;;
69081;SDS011;69029;51.986;5.760;2023-07-13T05:15:56;7.75;;;2.67;;
69081;SDS011;69029;51.986;5.760;2023-07-13T05:18:26;10.43;;;3.08;;
69081;SDS011;69029;51.986;5.760;2023-07-13T05:21:03;9.70;;;3.22;;
69081;SDS011;69029;51.986;5.760;2023-07-13T05:23:31;9.73;;;2.88;;
69081;SDS011;69029;51.986;5.760;2023-07-13T05:25:58;10.73;;;3.30;;
69081;SDS011;69029;51.986;5.760;2023-07-13T05:28:25;9.35;;;3.22;;
69081;SDS011;69029;51.986;5.760;2023-07-13T05:30:52;13.07;;;3.97;;
69081;SDS011;69029;51.986;5.760;2023-07-13T05:33:19;12.63;;;3.67;;
69081;SDS011;69029;51.986;5.760;2023-07-13T05:35:45;13.18;;;3.60;;
69081;SDS011;69029;51.986;5.760;2023-07-13T05:38:11;10.98;;;3.47;;
69081;SDS011;69029;51.986;5.760;2023-07-13T05:40:37;12.98;;;3.90;;
69081;SDS011;69029;51.986;5.760;2023-07-13T05:43:02;11.45;;;3.63;;
69081;SDS011;69029;51.986;5.760;2023-07-13T05:45:28;14.73;;;3.97;;
69081;SDS011;69029;51.986;5.760;2023-07-13T05:47:54;14.57;;;4.35;;
69081;SDS011;69029;51.986;5.760;2023-07-13T05:50:20;14.48;;;4.00;;
69081;SDS011;69029;51.986;5.760;2023-07-13T05:52:46;12.80;;;4.20;;
69081;SDS011;69029;51.986;5.760;2023-07-13T05:55:12;13.38;;;3.97;;
69081;SDS011;69029;51.986;5.760;2023-07-13T05:57:38;17.77;;;4.43;;
69081;SDS011;69029;51.986;5.760;2023-07-13T06:00:04;22.42;;;5.57;;
69081;SDS011;69029;51.986;5.760;2023-07-13T06:02:30;16.05;;;4.80;;
69081;SDS011;69029;51.986;5.760;2023-07-13T06:04:55;14.10;;;4.47;;
69081;SDS011;69029;51.986;5.760;2023-07-13T06:07:21;18.65;;;4.78;;
69081;SDS011;69029;51.986;5.760;2023-07-13T06:09:47;16.42;;;5.35;;
69081;SDS011;69029;51.986;5.760;2023-07-13T06:12:12;22.85;;;6.25;;
69081;SDS011;69029;51.986;5.760;2023-07-13T06:14:38;15.88;;;5.13;;
69081;SDS011;69029;51.986;5.760;2023-07-13T06:17:04;16.77;;;6.20;;
69081;SDS011;69029;51.986;5.760;2023-07-13T06:19:30;25.65;;;6.50;;
69081;SDS011;69029;51.986;5.760;2023-07-13T06:21:55;16.95;;;4.95;;
69081;SDS011;69029;51.986;5.760;2023-07-13T06:24:23;17.15;;;5.68;;
69081;SDS011;69029;51.986;5.760;2023-07-13T06:26:49;18.13;;;6.15;;
69081;SDS011;69029;51.986;5.760;2023-07-13T06:29:15;19.23;;;6.03;;
69081;SDS011;69029;51.986;5.760;2023-07-13T06:31:41;19.40;;;6.22;;
69081;SDS011;69029;51.986;5.760;2023-07-13T06:34:07;18.38;;;5.63;;
69081;SDS011;69029;51.986;5.760;2023-07-13T06:36:32;19.95;;;5.85;;
69081;SDS011;69029;51.986;5.760;2023-07-13T06:38:58;21.80;;;6.68;;
69081;SDS011;69029;51.986;5.760;2023-07-13T06:41:24;17.95;;;5.65;;
69081;SDS011;69029;51.986;5.760;2023-07-13T06:43:53;19.25;;;6.97;;
69081;SDS011;69029;51.986;5.760;2023-07-13T06:46:20;24.13;;;7.78;;
69081;SDS011;69029;51.986;5.760;2023-07-13T06:48:47;19.83;;;7.38;;
69081;SDS011;69029;51.986;5.760;2023-07-13T06:51:12;17.95;;;6.80;;
69081;SDS011;69029;51.986;5.760;2023-07-13T06:53:38;21.88;;;7.50;;
69081;SDS011;69029;51.986;5.760;2023-07-13T06:56:04;17.42;;;6.68;;
69081;SDS011;69029;51.986;5.760;2023-07-13T06:58:30;25.55;;;8.57;;
69081;SDS011;69029;51.986;5.760;2023-07-13T07:00:56;21.23;;;7.68;;
69081;SDS011;69029;51.986;5.760;2023-07-13T07:03:21;21.52;;;7.07;;
69081;SDS011;69029;51.986;5.760;2023-07-13T07:05:47;23.35;;;8.18;;
69081;SDS011;69029;51.986;5.760;2023-07-13T07:08:13;18.83;;;6.90;;
69081;SDS011;69029;51.986;5.760;2023-07-13T07:10:40;21.95;;;6.75;;
69081;SDS011;69029;51.986;5.760;2023-07-13T07:13:05;20.55;;;6.70;;
69081;SDS011;69029;51.986;5.760;2023-07-13T07:15:31;23.75;;;7.65;;
69081;SDS011;69029;51.986;5.760;2023-07-13T07:17:59;22.35;;;6.57;;
69081;SDS011;69029;51.986;5.760;2023-07-13T07:20:24;15.77;;;6.53;;
69081;SDS011;69029;51.986;5.760;2023-07-13T07:22:51;23.60;;;7.05;;
69081;SDS011;69029;51.986;5.760;2023-07-13T07:25:17;19.42;;;7.57;;
69081;SDS011;69029;51.986;5.760;2023-07-13T07:27:43;17.83;;;7.20;;
69081;SDS011;69029;51.986;5.760;2023-07-13T07:30:09;18.02;;;6.70;;
69081;SDS011;69029;51.986;5.760;2023-07-13T07:32:35;17.48;;;7.03;;
69081;SDS011;69029;51.986;5.760;2023-07-13T07:35:00;14.48;;;5.63;;
69081;SDS011;69029;51.986;5.760;2023-07-13T07:37:26;14.95;;;5.80;;
69081;SDS011;69029;51.986;5.760;2023-07-13T07:39:52;17.58;;;6.93;;
69081;SDS011;69029;51.986;5.760;2023-07-13T07:42:18;15.82;;;6.50;;
69081;SDS011;69029;51.986;5.760;2023-07-13T07:44:43;17.70;;;6.93;;
69081;SDS011;69029;51.986;5.760;2023-07-13T07:47:09;17.42;;;5.97;;
69081;SDS011;69029;51.986;5.760;2023-07-13T07:49:35;21.80;;;7.72;;
69081;SDS011;69029;51.986;5.760;2023-07-13T07:52:02;16.83;;;7.22;;
69081;SDS011;69029;51.986;5.760;2023-07-13T07:54:28;16.67;;;6.70;;
69081;SDS011;69029;51.986;5.760;2023-07-13T07:56:53;15.77;;;6.82;;
69081;SDS011;69029;51.986;5.760;2023-07-13T07:59:19;20.75;;;7.20;;
69081;SDS011;69029;51.986;5.760;2023-07-13T08:01:45;14.50;;;6.65;;
69081;SDS011;69029;51.986;5.760;2023-07-13T08:04:13;17.52;;;6.72;;
69081;SDS011;69029;51.986;5.760;2023-07-13T08:06:38;18.23;;;6.68;;
69081;SDS011;69029;51.986;5.760;2023-07-13T08:09:04;15.10;;;6.63;;
69081;SDS011;69029;51.986;5.760;2023-07-13T08:11:31;16.98;;;6.38;;
69081;SDS011;69029;51.986;5.760;2023-07-13T08:13:56;12.70;;;5.55;;
69081;SDS011;69029;51.986;5.760;2023-07-13T08:16:22;18.08;;;6.60;;
69081;SDS011;69029;51.986;5.760;2023-07-13T08:18:49;17.35;;;6.68;;
69081;SDS011;69029;51.986;5.760;2023-07-13T08:21:14;17.15;;;7.40;;
69081;SDS011;69029;51.986;5.760;2023-07-13T08:23:40;20.60;;;6.47;;
69081;SDS011;69029;51.986;5.760;2023-07-13T08:26:06;13.75;;;6.15;;
69081;SDS011;69029;51.986;5.760;2023-07-13T08:28:33;12.38;;;5.65;;
69081;SDS011;69029;51.986;5.760;2023-07-13T08:31:03;14.82;;;5.78;;
69081;SDS011;69029;51.986;5.760;2023-07-13T08:33:30;16.65;;;6.00;;
69081;SDS011;69029;51.986;5.760;2023-07-13T08:35:55;15.52;;;5.97;;
69081;SDS011;69029;51.986;5.760;2023-07-13T08:38:22;14.38;;;5.38;;
69081;SDS011;69029;51.986;5.760;2023-07-13T08:41:10;16.73;;;6.53;;
69081;SDS011;69029;51.986;5.760;2023-07-13T08:43:41;13.15;;;5.50;;
69081;SDS011;69029;51.986;5.760;2023-07-13T08:46:13;15.60;;;5.40;;
69081;SDS011;69029;51.986;5.760;2023-07-13T08:49:01;13.30;;;4.95;;
69081;SDS011;69029;51.986;5.760;2023-07-13T08:54:02;10.05;;;4.70;;
69081;SDS011;69029;51.986;5.760;2023-07-13T08:56:51;8.85;;;4.47;;
69081;SDS011;69029;51.986;5.760;2023-07-13T08:59:19;9.07;;;3.97;;
69081;SDS011;69029;51.986;5.760;2023-07-13T09:02:06;9.50;;;3.63;;
69081;SDS011;69029;51.986;5.760;2023-07-13T09:04:56;13.52;;;3.88;;
69081;SDS011;69029;51.986;5.760;2023-07-13T09:15:17;13.68;;;3.55;;
69081;SDS011;69029;51.986;5.760;2023-07-13T09:17:52;8.65;;;3.70;;
69081;SDS011;69029;51.986;5.760;2023-07-13T09:20:24;9.65;;;3.30;;
69081;SDS011;69029;51.986;5.760;2023-07-13T09:22:58;8.07;;;3.25;;
69081;SDS011;69029;51.986;5.760;2023-07-13T09:25:29;9.65;;;2.88;;
69081;SDS011;69029;51.986;5.760;2023-07-13T09:27:58;10.50;;;2.92;;
69081;SDS011;69029;51.986;5.760;2023-07-13T09:30:40;7.28;;;2.45;;
69081;SDS011;69029;51.986;5.760;2023-07-13T09:33:18;8.88;;;3.13;;
69081;SDS011;69029;51.986;5.760;2023-07-13T09:35:44;8.75;;;2.92;;
69081;SDS011;69029;51.986;5.760;2023-07-13T09:38:14;14.02;;;3.67;;
69081;SDS011;69029;51.986;5.760;2023-07-13T09:43:25;7.72;;;2.67;;
69081;SDS011;69029;51.986;5.760;2023-07-13T09:45:53;7.22;;;2.67;;
69081;SDS011;69029;51.986;5.760;2023-07-13T09:48:19;8.30;;;3.30;;
69081;SDS011;69029;51.986;5.760;2023-07-13T09:50:45;8.43;;;2.40;;
69081;SDS011;69029;51.986;5.760;2023-07-13T09:53:18;11.23;;;3.10;;
69081;SDS011;69029;51.986;5.760;2023-07-13T09:55:47;11.75;;;3.42;;
69081;SDS011;69029;51.986;5.760;2023-07-13T09:58:15;9.43;;;2.88;;
69081;SDS011;69029;51.986;5.760;2023-07-13T10:00:44;7.07;;;2.58;;
69081;SDS011;69029;51.986;5.760;2023-07-13T10:03:26;10.13;;;2.72;;
69081;SDS011;69029;51.986;5.760;2023-07-13T10:05:53;9.35;;;2.70;;
69081;SDS011;69029;51.986;5.760;2023-07-13T10:11:14;9.75;;;2.58;;
69081;SDS011;69029;51.986;5.760;2023-07-13T10:13:54;10.02;;;2.80;;
69081;SDS011;69029;51.986;5.760;2023-07-13T10:16:25;13.00;;;2.70;;
69081;SDS011;69029;51.986;5.760;2023-07-13T10:21:55;10.68;;;3.03;;
69081;SDS011;69029;51.986;5.760;2023-07-13T10:24:32;10.20;;;3.08;;
69081;SDS011;69029;51.986;5.760;2023-07-13T10:29:44;7.88;;;2.50;;
69081;SDS011;69029;51.986;5.760;2023-07-13T10:32:13;9.15;;;2.70;;
69081;SDS011;69029;51.986;5.760;2023-07-13T10:34:40;10.40;;;2.90;;
69081;SDS011;69029;51.986;5.760;2023-07-13T10:37:15;6.75;;;2.38;;
69081;SDS011;69029;51.986;5.760;2023-07-13T10:39:45;8.30;;;2.75;;
69081;SDS011;69029;51.986;5.760;2023-07-13T10:42:13;8.00;;;2.60;;
69081;SDS011;69029;51.986;5.760;2023-07-13T10:44:43;10.73;;;2.75;;
69081;SDS011;69029;51.986;5.760;2023-07-13T10:47:11;10.95;;;2.78;;
69081;SDS011;69029;51.986;5.760;2023-07-13T10:49:40;9.05;;;2.67;;
69081;SDS011;69029;51.986;5.760;2023-07-13T10:52:32;8.27;;;2.53;;
69081;SDS011;69029;51.986;5.760;2023-07-13T10:58:02;8.13;;;2.05;;
69081;SDS011;69029;51.986;5.760;2023-07-13T11:01:02;4.93;;;1.85;;
69081;SDS011;69029;51.986;5.760;2023-07-13T11:03:28;6.43;;;1.90;;
69081;SDS011;69029;51.986;5.760;2023-07-13T11:06:13;6.50;;;1.90;;
69081;SDS011;69029;51.986;5.760;2023-07-13T11:13:55;5.47;;;2.10;;
69081;SDS011;69029;51.986;5.760;2023-07-13T11:18:50;6.70;;;2.20;;
69081;SDS011;69029;51.986;5.760;2023-07-13T11:21:28;3.90;;;1.90;;
69081;SDS011;69029;51.986;5.760;2023-07-13T11:27:21;4.07;;;1.55;;
69081;SDS011;69029;51.986;5.760;2023-07-13T11:30:21;4.57;;;1.90;;
69081;SDS011;69029;51.986;5.760;2023-07-13T11:33:01;4.68;;;2.13;;
69081;SDS011;69029;51.986;5.760;2023-07-13T11:35:31;5.15;;;2.03;;
69081;SDS011;69029;51.986;5.760;2023-07-13T11:38:01;5.28;;;1.83;;
69081;SDS011;69029;51.986;5.760;2023-07-13T11:40:35;4.03;;;1.83;;
69081;SDS011;69029;51.986;5.760;2023-07-13T11:43:01;6.03;;;2.15;;
69081;SDS011;69029;51.986;5.760;2023-07-13T11:45:27;3.15;;;1.83;;
69081;SDS011;69029;51.986;5.760;2023-07-13T11:47:53;4.85;;;1.85;;
69081;SDS011;69029;51.986;5.760;2023-07-13T11:50:22;4.63;;;1.80;;
69081;SDS011;69029;51.986;5.760;2023-07-13T11:52:50;4.38;;;1.88;;
69081;SDS011;69029;51.986;5.760;2023-07-13T11:55:20;7.78;;;2.13;;
69081;SDS011;69029;51.986;5.760;2023-07-13T11:57:51;5.13;;;1.55;;
69081;SDS011;69029;51.986;5.760;2023-07-13T12:00:31;6.03;;;1.98;;
69081;SDS011;69029;51.986;5.760;2023-07-13T12:02:59;4.50;;;2.17;;
69081;SDS011;69029;51.986;5.760;2023-07-13T12:05:26;5.25;;;1.90;;
69081;SDS011;69029;51.986;5.760;2023-07-13T12:07:52;6.38;;;2.22;;
69081;SDS011;69029;51.986;5.760;2023-07-13T12:12:57;6.40;;;1.88;;
69081;SDS011;69029;51.986;5.760;2023-07-13T12:15:44;3.15;;;1.52;;
69081;SDS011;69029;51.986;5.760;2023-07-13T12:18:21;5.85;;;1.88;;
69081;SDS011;69029;51.986;5.760;2023-07-13T12:20:49;4.82;;;1.58;;
69081;SDS011;69029;51.986;5.760;2023-07-13T12:25:51;4.68;;;1.75;;
69081;SDS011;69029;51.986;5.760;2023-07-13T12:28:36;3.58;;;1.67;;
69081;SDS011;69029;51.986;5.760;2023-07-13T12:31:04;4.00;;;1.60;;
69081;SDS011;69029;51.986;5.760;2023-07-13T12:33:32;3.22;;;1.55;;
69081;SDS011;69029;51.986;5.760;2023-07-13T12:36:02;5.30;;;1.80;;
69081;SDS011;69029;51.986;5.760;2023-07-13T12:38:31;6.10;;;1.95;;
69081;SDS011;69029;51.986;5.760;2023-07-13T12:40:57;6.18;;;1.98;;
69081;SDS011;69029;51.986;5.760;2023-07-13T12:43:23;5.20;;;1.73;;
69081;SDS011;69029;51.986;5.760;2023-07-13T12:48:51;3.47;;;1.50;;
69081;SDS011;69029;51.986;5.760;2023-07-13T12:53:50;4.28;;;1.40;;
69081;SDS011;69029;51.986;5.760;2023-07-13T12:56:23;3.67;;;1.50;;
69081;SDS011;69029;51.986;5.760;2023-07-13T12:58:56;3.05;;;1.30;;
69081;SDS011;69029;51.986;5.760;2023-07-13T13:01:25;3.83;;;1.70;;
69081;SDS011;69029;51.986;5.760;2023-07-13T13:03:53;2.85;;;1.73;;
69081;SDS011;69029;51.986;5.760;2023-07-13T13:06:25;4.43;;;1.55;;
69081;SDS011;69029;51.986;5.760;2023-07-13T13:08:53;2.63;;;1.40;;
69081;SDS011;69029;51.986;5.760;2023-07-13T13:11:21;6.65;;;1.30;;
69081;SDS011;69029;51.986;5.760;2023-07-13T13:13:48;3.50;;;1.63;;
69081;SDS011;69029;51.986;5.760;2023-07-13T13:16:20;4.43;;;1.70;;
69081;SDS011;69029;51.986;5.760;2023-07-13T13:18:48;3.60;;;1.40;;
69081;SDS011;69029;51.986;5.760;2023-07-13T13:21:16;5.72;;;1.40;;
69081;SDS011;69029;51.986;5.760;2023-07-13T13:23:42;4.25;;;1.60;;
69081;SDS011;69029;51.986;5.760;2023-07-13T13:26:10;2.35;;;1.42;;
69081;SDS011;69029;51.986;5.760;2023-07-13T13:28:37;6.35;;;1.50;;
69081;SDS011;69029;51.986;5.760;2023-07-13T13:31:03;3.05;;;1.88;;
69081;SDS011;69029;51.986;5.760;2023-07-13T13:33:28;2.65;;;1.25;;
69081;SDS011;69029;51.986;5.760;2023-07-13T13:35:55;3.28;;;1.30;;
69081;SDS011;69029;51.986;5.760;2023-07-13T13:38:24;3.15;;;1.20;;
69081;SDS011;69029;51.986;5.760;2023-07-13T13:40:51;3.15;;;1.42;;
69081;SDS011;69029;51.986;5.760;2023-07-13T13:43:25;5.22;;;1.58;;
69081;SDS011;69029;51.986;5.760;2023-07-13T13:45:55;3.67;;;1.48;;
69081;SDS011;69029;51.986;5.760;2023-07-13T13:48:32;4.07;;;1.42;;
69081;SDS011;69029;51.986;5.760;2023-07-13T13:50:59;4.05;;;1.60;;
69081;SDS011;69029;51.986;5.760;2023-07-13T13:53:26;2.40;;;1.40;;
69081;SDS011;69029;51.986;5.760;2023-07-13T13:55:52;3.25;;;1.52;;
69081;SDS011;69029;51.986;5.760;2023-07-13T13:58:18;3.03;;;1.70;;
69081;SDS011;69029;51.986;5.760;2023-07-13T14:00:44;3.33;;;1.25;;
69081;SDS011;69029;51.986;5.760;2023-07-13T14:03:14;4.78;;;1.67;;
69081;SDS011;69029;51.986;5.760;2023-07-13T14:05:44;2.13;;;1.23;;
69081;SDS011;69029;51.986;5.760;2023-07-13T14:08:18;2.08;;;1.35;;
69081;SDS011;69029;51.986;5.760;2023-07-13T14:10:49;3.85;;;1.50;;
69081;SDS011;69029;51.986;5.760;2023-07-13T14:13:18;3.40;;;1.50;;
69081;SDS011;69029;51.986;5.760;2023-07-13T14:15:47;3.78;;;1.50;;
69081;SDS011;69029;51.986;5.760;2023-07-13T14:18:13;3.92;;;1.75;;
69081;SDS011;69029;51.986;5.760;2023-07-13T14:20:46;3.78;;;1.50;;
69081;SDS011;69029;51.986;5.760;2023-07-13T14:23:13;1.90;;;1.30;;
69081;SDS011;69029;51.986;5.760;2023-07-13T14:25:40;2.80;;;1.40;;
69081;SDS011;69029;51.986;5.760;2023-07-13T14:28:23;3.08;;;1.23;;
69081;SDS011;69029;51.986;5.760;2023-07-13T14:30:51;8.20;;;1.50;;
69081;SDS011;69029;51.986;5.760;2023-07-13T14:33:17;2.58;;;1.33;;
69081;SDS011;69029;51.986;5.760;2023-07-13T14:35:43;2.70;;;1.50;;
69081;SDS011;69029;51.986;5.760;2023-07-13T14:38:13;4.93;;;1.50;;
69081;SDS011;69029;51.986;5.760;2023-07-13T14:40:41;2.90;;;1.60;;
69081;SDS011;69029;51.986;5.760;2023-07-13T14:43:09;5.38;;;1.48;;
69081;SDS011;69029;51.986;5.760;2023-07-13T14:45:38;4.35;;;1.58;;
69081;SDS011;69029;51.986;5.760;2023-07-13T14:48:16;3.35;;;1.63;;
69081;SDS011;69029;51.986;5.760;2023-07-13T14:50:49;3.97;;;1.55;;
69081;SDS011;69029;51.986;5.760;2023-07-13T14:53:22;3.25;;;1.63;;
69081;SDS011;69029;51.986;5.760;2023-07-13T14:55:49;4.95;;;1.80;;
69081;SDS011;69029;51.986;5.760;2023-07-13T14:58:17;2.78;;;1.60;;
69081;SDS011;69029;51.986;5.760;2023-07-13T15:00:43;4.32;;;1.55;;
69081;SDS011;69029;51.986;5.760;2023-07-13T15:03:19;3.33;;;1.55;;
69081;SDS011;69029;51.986;5.760;2023-07-13T15:05:49;3.15;;;1.75;;
69081;SDS011;69029;51.986;5.760;2023-07-13T15:08:16;5.38;;;1.70;;
69081;SDS011;69029;51.986;5.760;2023-07-13T15:10:42;2.30;;;1.40;;
69081;SDS011;69029;51.986;5.760;2023-07-13T15:13:15;4.28;;;1.48;;
69081;SDS011;69029;51.986;5.760;2023-07-13T15:15:44;4.25;;;1.45;;
69081;SDS011;69029;51.986;5.760;2023-07-13T15:18:15;4.45;;;1.70;;
69081;SDS011;69029;51.986;5.760;2023-07-13T15:20:43;3.20;;;1.40;;
69081;SDS011;69029;51.986;5.760;2023-07-13T15:23:10;3.97;;;1.48;;
69081;SDS011;69029;51.986;5.760;2023-07-13T15:25:38;1.60;;;1.33;;
69081;SDS011;69029;51.986;5.760;2023-07-13T15:28:05;2.67;;;1.40;;
69081;SDS011;69029;51.986;5.760;2023-07-13T15:30:36;4.90;;;1.60;;
69081;SDS011;69029;51.986;5.760;2023-07-13T15:33:21;2.38;;;1.40;;
69081;SDS011;69029;51.986;5.760;2023-07-13T15:38:25;3.85;;;1.50;;
69081;SDS011;69029;51.986;5.760;2023-07-13T15:40:57;3.15;;;1.40;;
69081;SDS011;69029;51.986;5.760;2023-07-13T15:43:23;3.35;;;1.65;;
69081;SDS011;69029;51.986;5.760;2023-07-13T15:45:51;5.80;;;1.30;;